Time,TemperatureF,DewpointF,PressureIn,WindDirection,WindDirectionDegrees,WindSpeedMPH,WindSpeedGustMPH,Humidity,HourlyPrecipIn,Conditions,Clouds,dailyrainin,SoftwareType,DateUTC
2013-10-02 00:01:00,55.6,54.7,30.07,SE,145,0.0,0.0,97,0.00,,,0.00,meteohub,2013-10-02 04:01:00,
2013-10-02 00:02:00,55.6,54.7,30.07,SE,145,0.0,0.0,97,0.00,,,0.00,meteohub,2013-10-02 04:02:00,
2013-10-02 00:03:00,55.6,54.7,30.07,SE,145,0.0,0.0,97,0.00,,,0.00,meteohub,2013-10-02 04:03:00,
2013-10-02 00:08:00,55.4,54.5,30.07,SE,145,0.0,0.0,97,0.00,,,0.00,meteohub,2013-10-02 04:08:00,
2013-10-02 00:09:00,55.4,54.5,30.07,SE,146,0.0,0.0,97,0.00,,,0.00,meteohub,2013-10-02 04:09:00,
2013-10-02 00:14:00,55.2,54.1,30.07,SE,145,0.0,0.0,96,0.00,,,0.00,meteohub,2013-10-02 04:14:00,
2013-10-02 00:19:00,55.0,54.0,30.07,SE,145,0.0,0.0,96,0.00,,,0.00,meteohub,2013-10-02 04:19:00,
2013-10-02 00:24:00,54.9,53.8,30.07,SE,145,0.0,0.0,96,0.00,,,0.00,meteohub,2013-10-02 04:24:00,
2013-10-02 00:30:00,54.7,53.6,30.08,SE,145,0.0,0.0,96,0.00,,,0.00,meteohub,2013-10-02 04:30:00,
2013-10-02 00:35:00,54.7,53.8,30.07,SE,145,0.0,0.0,97,0.00,,,0.00,meteohub,2013-10-02 04:35:00,
2013-10-02 00:40:00,54.5,53.4,30.07,SE,145,0.0,0.0,96,0.00,,,0.00,meteohub,2013-10-02 04:40:00,
2013-10-02 00:45:00,54.3,53.2,30.07,SE,145,0.0,0.0,96,0.00,,,0.00,meteohub,2013-10-02 04:45:00,
2013-10-02 00:50:00,54.1,53.1,30.08,SE,146,0.0,0.0,96,0.00,,,0.00,meteohub,2013-10-02 04:50:00,
2013-10-02 00:55:00,54.1,53.1,30.08,SE,145,0.0,0.0,96,0.00,,,0.00,meteohub,2013-10-02 04:55:00,
2013-10-02 01:00:00,54.3,53.4,30.08,SE,146,0.0,0.0,97,0.00,,,0.00,meteohub,2013-10-02 05:00:00,
2013-10-02 01:05:00,54.3,53.4,30.08,SE,145,0.0,0.0,97,0.00,,,0.00,meteohub,2013-10-02 05:05:00,
2013-10-02 01:10:00,54.3,53.4,30.08,SE,145,0.0,0.0,97,0.00,,,0.00,meteohub,2013-10-02 05:10:00,
2013-10-02 01:15:00,54.3,53.4,30.07,SE,145,0.0,0.0,97,0.00,,,0.00,meteohub,2013-10-02 05:15:00,
2013-10-02 01:20:00,54.3,53.4,30.08,SE,145,0.0,0.0,97,0.00,,,0.00,meteohub,2013-10-02 05:20:00,
2013-10-02 01:25:00,54.1,53.2,30.08,SE,145,0.0,0.0,97,0.00,,,0.00,meteohub,2013-10-02 05:25:00,
2013-10-02 01:30:00,54.1,53.2,30.08,SE,145,0.0,0.0,97,0.00,,,0.00,meteohub,2013-10-02 05:30:00,
2013-10-02 01:35:00,54.0,53.1,30.08,SE,145,0.0,0.0,97,0.00,,,0.00,meteohub,2013-10-02 05:35:00,
2013-10-02 01:41:00,54.0,53.1,30.08,SE,145,0.0,0.0,97,0.00,,,0.00,meteohub,2013-10-02 05:41:00,
2013-10-02 01:46:00,54.0,53.1,30.08,SE,146,0.0,0.0,97,0.00,,,0.00,meteohub,2013-10-02 05:46:00,
2013-10-02 01:51:00,53.8,52.9,30.08,SE,145,0.0,0.0,97,0.00,,,0.00,meteohub,2013-10-02 05:51:00,
2013-10-02 01:56:00,53.8,52.9,30.08,SE,145,0.0,0.0,97,0.00,,,0.00,meteohub,2013-10-02 05:56:00,
2013-10-02 02:01:00,53.4,52.5,30.08,SE,145,0.0,0.0,97,0.00,,,0.00,meteohub,2013-10-02 06:01:00,
2013-10-02 02:06:00,53.8,52.9,30.08,SE,145,0.0,0.0,97,0.00,,,0.00,meteohub,2013-10-02 06:06:00,
2013-10-02 02:11:00,54.0,53.1,30.08,SE,145,0.0,0.0,97,0.00,,,0.00,meteohub,2013-10-02 06:11:00,
2013-10-02 02:16:00,54.0,53.1,30.08,SE,145,0.0,0.0,97,0.00,,,0.00,meteohub,2013-10-02 06:16:00,
2013-10-02 02:21:00,54.0,53.1,30.08,SE,145,0.0,0.0,97,0.00,,,0.00,meteohub,2013-10-02 06:21:00,
2013-10-02 02:26:00,54.0,53.1,30.08,SE,145,0.0,0.0,97,0.00,,,0.00,meteohub,2013-10-02 06:26:00,
2013-10-02 02:31:00,53.8,52.9,30.08,SE,145,0.0,0.0,97,0.00,,,0.00,meteohub,2013-10-02 06:31:00,
2013-10-02 02:36:00,53.6,52.7,30.08,SE,145,0.0,0.0,97,0.00,,,0.00,meteohub,2013-10-02 06:36:00,
2013-10-02 02:41:00,53.4,52.5,30.08,SE,145,0.0,0.0,97,0.00,,,0.00,meteohub,2013-10-02 06:41:00,
2013-10-02 02:47:00,53.8,52.9,30.08,SE,146,0.0,0.0,97,0.00,,,0.00,meteohub,2013-10-02 06:47:00,
2013-10-02 02:52:00,54.0,53.1,30.08,SE,145,0.0,0.0,97,0.00,,,0.00,meteohub,2013-10-02 06:52:00,
2013-10-02 02:57:00,54.3,53.8,30.08,SE,145,0.0,0.0,98,0.00,,,0.00,meteohub,2013-10-02 06:57:00,
2013-10-02 03:02:00,54.1,53.6,30.08,SE,145,0.0,0.0,98,0.00,,,0.00,meteohub,2013-10-02 07:02:00,
2013-10-02 03:07:00,54.0,53.1,30.08,SE,146,0.0,0.0,97,0.00,,,0.00,meteohub,2013-10-02 07:07:00,
2013-10-02 03:12:00,53.8,52.9,30.08,SE,145,0.0,0.0,97,0.00,,,0.00,meteohub,2013-10-02 07:12:00,
2013-10-02 03:17:00,53.8,52.9,30.09,SE,145,0.0,0.0,97,0.00,,,0.00,meteohub,2013-10-02 07:17:00,
2013-10-02 03:22:00,53.8,52.9,30.08,SE,145,0.0,0.0,97,0.00,,,0.00,meteohub,2013-10-02 07:22:00,
2013-10-02 03:27:00,53.6,52.7,30.09,SE,145,0.0,0.0,97,0.00,,,0.00,meteohub,2013-10-02 07:27:00,
2013-10-02 03:32:00,53.4,52.5,30.09,SE,145,0.0,0.0,97,0.00,,,0.00,meteohub,2013-10-02 07:32:00,
2013-10-02 03:37:00,53.1,52.2,30.09,SE,145,0.0,0.0,97,0.00,,,0.00,meteohub,2013-10-02 07:37:00,
2013-10-02 03:42:00,52.9,52.0,30.09,SE,145,0.0,0.0,97,0.00,,,0.00,meteohub,2013-10-02 07:42:00,
2013-10-02 03:47:00,53.1,52.2,30.08,SE,145,0.0,0.0,97,0.00,,,0.00,meteohub,2013-10-02 07:47:00,
2013-10-02 03:52:00,53.2,52.3,30.09,SE,145,0.0,0.0,97,0.00,,,0.00,meteohub,2013-10-02 07:52:00,
2013-10-02 03:57:00,53.2,52.3,30.09,SE,145,0.0,0.0,97,0.00,,,0.00,meteohub,2013-10-02 07:57:00,
2013-10-02 04:03:00,53.2,52.3,30.09,SE,145,0.0,0.0,97,0.00,,,0.00,meteohub,2013-10-02 08:03:00,
2013-10-02 04:08:00,53.1,52.2,30.09,SE,145,0.0,0.0,97,0.00,,,0.00,meteohub,2013-10-02 08:08:00,
2013-10-02 04:13:00,53.2,52.3,30.09,SE,145,0.0,0.0,97,0.00,,,0.00,meteohub,2013-10-02 08:13:00,
2013-10-02 04:18:00,53.2,52.7,30.09,SE,145,0.0,0.0,98,0.00,,,0.00,meteohub,2013-10-02 08:18:00,
2013-10-02 04:23:00,53.1,52.2,30.09,SE,145,0.0,0.0,97,0.00,,,0.00,meteohub,2013-10-02 08:23:00,
2013-10-02 04:28:00,53.2,52.7,30.09,SE,145,0.0,0.0,98,0.00,,,0.00,meteohub,2013-10-02 08:28:00,
2013-10-02 04:33:00,53.2,52.7,30.09,SE,145,0.0,0.0,98,0.00,,,0.00,meteohub,2013-10-02 08:33:00,
2013-10-02 04:38:00,53.6,53.1,30.09,SE,145,0.0,0.0,98,0.00,,,0.00,meteohub,2013-10-02 08:38:00,
2013-10-02 04:43:00,53.4,52.9,30.09,SE,145,0.0,0.0,98,0.00,,,0.00,meteohub,2013-10-02 08:43:00,
2013-10-02 04:48:00,53.4,52.9,30.09,SE,145,0.0,0.0,98,0.00,,,0.00,meteohub,2013-10-02 08:48:00,
2013-10-02 04:53:00,53.8,53.2,30.09,SE,145,0.0,0.0,98,0.00,,,0.00,meteohub,2013-10-02 08:53:00,
2013-10-02 04:58:00,53.8,53.2,30.09,SE,146,0.0,0.0,98,0.00,,,0.00,meteohub,2013-10-02 08:58:00,
2013-10-02 05:03:00,53.8,53.2,30.09,SE,145,0.0,0.0,98,0.00,,,0.00,meteohub,2013-10-02 09:03:00,
2013-10-02 05:08:00,53.8,53.2,30.09,SE,146,0.0,0.0,98,0.00,,,0.00,meteohub,2013-10-02 09:08:00,
2013-10-02 05:13:00,53.8,52.9,30.09,SE,145,0.0,0.0,97,0.00,,,0.00,meteohub,2013-10-02 09:13:00,
2013-10-02 05:19:00,53.8,52.9,30.09,SE,145,0.0,0.0,97,0.00,,,0.00,meteohub,2013-10-02 09:19:00,
2013-10-02 05:24:00,54.0,53.4,30.09,SE,145,0.0,0.0,98,0.00,,,0.00,meteohub,2013-10-02 09:24:00,
2013-10-02 05:29:00,54.0,53.1,30.09,SE,146,0.0,0.0,97,0.00,,,0.00,meteohub,2013-10-02 09:29:00,
2013-10-02 05:34:00,54.0,53.4,30.09,SE,145,0.0,0.0,98,0.00,,,0.00,meteohub,2013-10-02 09:34:00,
2013-10-02 05:39:00,54.3,53.8,30.09,SE,145,0.0,0.0,98,0.00,,,0.00,meteohub,2013-10-02 09:39:00,
2013-10-02 05:44:00,54.1,53.6,30.09,SE,145,0.0,0.0,98,0.00,,,0.00,meteohub,2013-10-02 09:44:00,
2013-10-02 05:49:00,54.1,53.6,30.09,SE,145,0.0,0.0,98,0.00,,,0.00,meteohub,2013-10-02 09:49:00,
2013-10-02 05:54:00,54.1,53.6,30.09,SE,146,0.0,0.0,98,0.00,,,0.00,meteohub,2013-10-02 09:54:00,
2013-10-02 05:59:00,54.1,53.6,30.09,SE,145,0.0,0.0,98,0.00,,,0.00,meteohub,2013-10-02 09:59:00,
2013-10-02 06:04:00,54.1,53.6,30.09,SE,145,0.0,0.0,98,0.00,,,0.00,meteohub,2013-10-02 10:04:00,
2013-10-02 06:09:00,54.0,53.4,30.09,SE,145,0.0,0.0,98,0.00,,,0.00,meteohub,2013-10-02 10:09:00,
2013-10-02 06:14:00,54.0,53.4,30.09,SE,145,0.0,0.0,98,0.00,,,0.00,meteohub,2013-10-02 10:14:00,
2013-10-02 06:20:00,54.1,53.6,30.09,SE,145,0.0,0.0,98,0.00,,,0.00,meteohub,2013-10-02 10:20:00,
2013-10-02 06:25:00,54.1,53.6,30.10,SE,145,0.0,0.0,98,0.00,,,0.00,meteohub,2013-10-02 10:25:00,
2013-10-02 06:30:00,54.3,53.8,30.10,SE,145,0.0,0.0,98,0.00,,,0.00,meteohub,2013-10-02 10:30:00,
2013-10-02 06:35:00,54.5,54.0,30.10,SE,145,0.0,0.0,98,0.00,,,0.00,meteohub,2013-10-02 10:35:00,
2013-10-02 06:40:00,54.3,53.8,30.10,SE,145,0.0,0.0,98,0.00,,,0.00,meteohub,2013-10-02 10:40:00,
2013-10-02 06:45:00,54.1,53.6,30.10,SE,145,0.0,0.0,98,0.00,,,0.00,meteohub,2013-10-02 10:45:00,
2013-10-02 06:50:00,54.1,53.6,30.10,SE,146,0.0,0.0,98,0.00,,,0.00,meteohub,2013-10-02 10:50:00,
2013-10-02 06:55:00,54.1,53.6,30.10,SE,145,0.0,0.0,98,0.00,,,0.00,meteohub,2013-10-02 10:55:00,
2013-10-02 07:00:00,54.1,53.6,30.10,SE,145,0.0,0.0,98,0.00,,,0.00,meteohub,2013-10-02 11:00:00,
2013-10-02 07:05:00,54.1,53.6,30.10,SE,145,0.0,0.0,98,0.00,,,0.00,meteohub,2013-10-02 11:05:00,
2013-10-02 07:10:00,53.8,52.9,30.10,SE,145,0.0,0.0,97,0.00,,,0.00,meteohub,2013-10-02 11:10:00,
2013-10-02 07:15:00,53.4,52.5,30.11,SE,145,0.0,0.0,97,0.00,,,0.00,meteohub,2013-10-02 11:15:00,
2013-10-02 07:20:00,53.4,52.5,30.10,SE,145,0.0,0.0,97,0.00,,,0.00,meteohub,2013-10-02 11:20:00,
2013-10-02 07:26:00,53.8,53.2,30.11,SE,145,0.0,0.0,98,0.00,,,0.00,meteohub,2013-10-02 11:26:00,
2013-10-02 07:31:00,53.8,53.2,30.11,SE,145,0.0,0.0,98,0.00,,,0.00,meteohub,2013-10-02 11:31:00,
2013-10-02 07:36:00,54.1,53.6,30.11,SE,145,0.0,0.0,98,0.00,,,0.00,meteohub,2013-10-02 11:36:00,
2013-10-02 07:41:00,54.0,53.4,30.12,SE,145,0.0,0.0,98,0.00,,,0.00,meteohub,2013-10-02 11:41:00,
2013-10-02 07:46:00,54.0,53.4,30.12,SE,145,0.0,0.0,98,0.00,,,0.00,meteohub,2013-10-02 11:46:00,
2013-10-02 07:51:00,53.8,53.2,30.12,SE,145,0.0,0.0,98,0.00,,,0.00,meteohub,2013-10-02 11:51:00,
2013-10-02 07:56:00,53.6,53.1,30.12,SE,145,0.0,0.0,98,0.00,,,0.00,meteohub,2013-10-02 11:56:00,
2013-10-02 08:01:00,53.2,52.7,30.12,SE,145,0.0,0.0,98,0.00,,,0.00,meteohub,2013-10-02 12:01:00,
2013-10-02 08:06:00,53.2,52.7,30.12,SE,145,0.0,0.0,98,0.00,,,0.00,meteohub,2013-10-02 12:06:00,
2013-10-02 08:11:00,53.2,52.7,30.12,SE,145,0.0,0.0,98,0.00,,,0.00,meteohub,2013-10-02 12:11:00,
2013-10-02 08:16:00,53.4,52.9,30.12,SE,145,0.0,0.0,98,0.00,,,0.00,meteohub,2013-10-02 12:16:00,
2013-10-02 08:21:00,53.8,53.2,30.12,SE,145,0.0,0.0,98,0.00,,,0.00,meteohub,2013-10-02 12:21:00,
2013-10-02 08:26:00,54.0,53.4,30.12,SE,146,0.0,0.0,98,0.00,,,0.00,meteohub,2013-10-02 12:26:00,
2013-10-02 08:31:00,54.3,53.8,30.12,SE,146,0.0,0.0,98,0.00,,,0.00,meteohub,2013-10-02 12:31:00,
2013-10-02 08:36:00,54.9,54.3,30.12,SE,146,0.0,0.0,98,0.00,,,0.00,meteohub,2013-10-02 12:36:00,
2013-10-02 08:42:00,55.0,54.5,30.12,SE,145,0.0,0.0,98,0.00,,,0.00,meteohub,2013-10-02 12:42:00,
2013-10-02 08:47:00,55.2,54.7,30.13,SE,145,0.0,0.0,98,0.00,,,0.00,meteohub,2013-10-02 12:47:00,
2013-10-02 08:52:00,55.8,55.2,30.13,SE,146,0.0,0.0,98,0.00,,,0.00,meteohub,2013-10-02 12:52:00,
2013-10-02 08:57:00,56.7,56.1,30.13,SE,145,0.0,0.0,98,0.00,,,0.00,meteohub,2013-10-02 12:57:00,
2013-10-02 09:02:00,57.6,57.0,30.13,SE,146,0.0,0.0,98,0.00,,,0.00,meteohub,2013-10-02 13:02:00,
2013-10-02 09:07:00,57.9,57.4,30.13,West,268,0.0,0.0,98,0.00,,,0.00,meteohub,2013-10-02 13:07:00,
2013-10-02 09:12:00,58.6,58.1,30.13,West,266,0.0,0.0,98,0.00,,,0.00,meteohub,2013-10-02 13:12:00,
2013-10-02 09:17:00,59.5,59.0,30.13,West,273,1.0,1.0,98,0.00,,,0.00,meteohub,2013-10-02 13:17:00,
2013-10-02 09:22:00,60.6,60.1,30.13,West,264,1.0,2.0,98,0.00,,,0.00,meteohub,2013-10-02 13:22:00,
2013-10-02 09:27:00,61.5,61.0,30.13,WSW,245,0.0,3.0,98,0.00,,,0.00,meteohub,2013-10-02 13:27:00,
2013-10-02 09:32:00,62.4,61.9,30.13,SSW,203,0.0,3.0,98,0.00,,,0.00,meteohub,2013-10-02 13:32:00,
2013-10-02 09:37:00,63.1,62.6,30.13,WSW,238,0.0,3.0,98,0.00,,,0.00,meteohub,2013-10-02 13:37:00,
2013-10-02 09:42:00,63.7,63.1,30.13,ENE,77,6.0,6.0,98,0.00,,,0.00,meteohub,2013-10-02 13:42:00,
2013-10-02 09:47:00,64.9,62.2,30.13,SE,124,4.0,6.0,91,0.00,,,0.00,meteohub,2013-10-02 13:47:00,
2013-10-02 09:53:00,65.8,61.5,30.13,WNW,289,2.0,7.0,86,0.00,,,0.00,meteohub,2013-10-02 13:53:00,
2013-10-02 09:58:00,66.0,61.7,30.13,West,269,2.0,7.0,86,0.00,,,0.00,meteohub,2013-10-02 13:58:00,
2013-10-02 10:03:00,66.6,62.2,30.13,ESE,116,1.0,7.0,86,0.00,,,0.00,meteohub,2013-10-02 14:03:00,
2013-10-02 10:08:00,66.9,62.2,30.13,ENE,63,2.0,6.0,85,0.00,,,0.00,meteohub,2013-10-02 14:08:00,
2013-10-02 10:13:00,67.1,62.1,30.13,ESE,105,0.0,5.0,84,0.00,,,0.00,meteohub,2013-10-02 14:13:00,
2013-10-02 10:18:00,67.5,62.1,30.13,SW,236,0.0,5.0,83,0.00,,,0.00,meteohub,2013-10-02 14:18:00,
2013-10-02 10:23:00,68.0,62.2,30.13,West,260,1.0,5.0,82,0.00,,,0.00,meteohub,2013-10-02 14:23:00,
2013-10-02 10:28:00,68.2,62.4,30.13,WSW,237,0.0,5.0,82,0.00,,,0.00,meteohub,2013-10-02 14:28:00,
2013-10-02 10:33:00,68.2,62.1,30.13,WSW,252,2.0,5.0,81,0.00,,,0.00,meteohub,2013-10-02 14:33:00,
2013-10-02 10:38:00,68.2,62.4,30.13,SE,131,0.0,5.0,82,0.00,,,0.00,meteohub,2013-10-02 14:38:00,
2013-10-02 10:43:00,68.2,62.1,30.13,West,273,0.0,4.0,81,0.00,,,0.00,meteohub,2013-10-02 14:43:00,
2013-10-02 10:48:00,68.2,62.4,30.13,East,86,7.0,7.0,82,0.00,,,0.00,meteohub,2013-10-02 14:48:00,
2013-10-02 10:53:00,68.4,62.2,30.13,East,94,3.0,7.0,81,0.00,,,0.00,meteohub,2013-10-02 14:53:00,
2013-10-02 10:58:00,68.5,62.8,30.13,WNW,287,0.0,7.0,82,0.00,,,0.00,meteohub,2013-10-02 14:58:00,
2013-10-02 11:03:00,69.3,62.8,30.13,WSW,254,2.0,8.0,80,0.00,,,0.00,meteohub,2013-10-02 15:03:00,
2013-10-02 11:09:00,69.4,62.6,30.13,SW,235,0.0,8.0,79,0.00,,,0.00,meteohub,2013-10-02 15:09:00,
2013-10-02 11:14:00,69.6,63.5,30.12,WSW,256,1.0,8.0,81,0.00,,,0.00,meteohub,2013-10-02 15:14:00,
2013-10-02 11:19:00,69.8,63.3,30.12,East,84,0.0,5.0,80,0.00,,,0.00,meteohub,2013-10-02 15:19:00,
2013-10-02 11:24:00,69.8,63.0,30.12,West,274,0.0,5.0,79,0.00,,,0.00,meteohub,2013-10-02 15:24:00,
2013-10-02 11:29:00,70.2,63.7,30.12,East,94,0.0,3.0,80,0.00,,,0.00,meteohub,2013-10-02 15:29:00,
2013-10-02 11:34:00,71.1,63.1,30.12,WNW,284,1.0,4.0,76,0.00,,,0.00,meteohub,2013-10-02 15:34:00,
2013-10-02 11:39:00,71.4,63.9,30.12,West,277,2.0,4.0,77,0.00,,,0.00,meteohub,2013-10-02 15:39:00,
2013-10-02 11:44:00,71.1,63.9,30.12,West,277,0.0,4.0,78,0.00,,,0.00,meteohub,2013-10-02 15:44:00,
2013-10-02 11:49:00,70.9,64.0,30.12,West,271,0.0,3.0,79,0.00,,,0.00,meteohub,2013-10-02 15:49:00,
2013-10-02 11:54:00,71.2,63.7,30.12,WSW,257,2.0,3.0,77,0.00,,,0.00,meteohub,2013-10-02 15:54:00,
2013-10-02 11:59:00,72.0,64.0,30.12,WSW,257,3.0,3.0,76,0.00,,,0.00,meteohub,2013-10-02 15:59:00,
2013-10-02 12:04:00,72.1,63.9,30.12,SW,229,0.0,3.0,75,0.00,,,0.00,meteohub,2013-10-02 16:04:00,
2013-10-02 12:09:00,72.3,63.5,30.12,SSE,152,0.0,4.0,74,0.00,,,0.00,meteohub,2013-10-02 16:09:00,
2013-10-02 12:14:00,72.7,63.9,30.12,West,260,0.0,5.0,74,0.00,,,0.00,meteohub,2013-10-02 16:14:00,
2013-10-02 12:20:00,73.0,63.9,30.12,East,88,2.0,6.0,73,0.00,,,0.00,meteohub,2013-10-02 16:20:00,
2013-10-02 12:25:00,73.6,64.4,30.12,SW,236,3.0,6.0,73,0.00,,,0.00,meteohub,2013-10-02 16:25:00,
2013-10-02 12:30:00,73.8,63.7,30.12,WSW,257,0.0,4.0,71,0.00,,,0.00,meteohub,2013-10-02 16:30:00,
2013-10-02 12:35:00,73.9,64.8,30.11,WNW,294,0.0,4.0,73,0.00,,,0.00,meteohub,2013-10-02 16:35:00,
2013-10-02 12:40:00,73.9,64.4,30.11,SW,236,1.0,4.0,72,0.00,,,0.00,meteohub,2013-10-02 16:40:00,
2013-10-02 12:45:00,74.1,64.6,30.11,WSW,253,1.0,4.0,72,0.00,,,0.00,meteohub,2013-10-02 16:45:00,
2013-10-02 12:50:00,73.8,64.6,30.11,WSW,242,1.0,4.0,73,0.00,,,0.00,meteohub,2013-10-02 16:50:00,
2013-10-02 12:55:00,73.6,64.0,30.11,ESE,118,0.0,4.0,72,0.00,,,0.00,meteohub,2013-10-02 16:55:00,
2013-10-02 13:00:00,73.4,63.9,30.11,West,268,2.0,4.0,72,0.00,,,0.00,meteohub,2013-10-02 17:00:00,
2013-10-02 13:05:00,73.6,64.4,30.11,WSW,238,0.0,3.0,73,0.00,,,0.00,meteohub,2013-10-02 17:05:00,
2013-10-02 13:10:00,74.3,65.5,30.11,West,278,1.0,3.0,74,0.00,,,0.00,meteohub,2013-10-02 17:10:00,
2013-10-02 13:15:00,75.4,64.9,30.11,WSW,248,0.0,3.0,70,0.00,,,0.00,meteohub,2013-10-02 17:15:00,
2013-10-02 13:20:00,75.4,64.9,30.10,West,260,0.0,4.0,70,0.00,,,0.00,meteohub,2013-10-02 17:20:00,
2013-10-02 13:25:00,75.7,65.7,30.10,WNW,287,1.0,4.0,71,0.00,,,0.00,meteohub,2013-10-02 17:25:00,
2013-10-02 13:31:00,75.6,64.8,30.10,WSW,242,0.0,4.0,69,0.00,,,0.00,meteohub,2013-10-02 17:31:00,
2013-10-02 13:36:00,76.5,65.5,30.10,West,276,0.0,4.0,69,0.00,,,0.00,meteohub,2013-10-02 17:36:00,
2013-10-02 13:41:00,75.9,64.6,30.10,WSW,239,1.0,4.0,68,0.00,,,0.00,meteohub,2013-10-02 17:41:00,
2013-10-02 13:46:00,75.7,64.0,30.09,SSE,166,0.0,5.0,67,0.00,,,0.00,meteohub,2013-10-02 17:46:00,
2013-10-02 13:51:00,76.8,64.9,30.09,WNW,283,0.0,5.0,67,0.00,,,0.00,meteohub,2013-10-02 17:51:00,
2013-10-02 13:56:00,77.2,65.3,30.09,WSW,238,4.0,4.0,67,0.00,,,0.00,meteohub,2013-10-02 17:56:00,
2013-10-02 14:01:00,76.3,64.0,30.09,SW,236,0.0,5.0,66,0.00,,,0.00,meteohub,2013-10-02 18:01:00,
2013-10-02 14:06:00,75.9,64.2,30.09,West,276,0.0,5.0,67,0.00,,,0.00,meteohub,2013-10-02 18:06:00,
2013-10-02 14:11:00,75.6,64.8,30.08,West,278,0.0,5.0,69,0.00,,,0.00,meteohub,2013-10-02 18:11:00,
2013-10-02 14:16:00,75.7,64.4,30.08,West,267,0.0,1.0,68,0.00,,,0.00,meteohub,2013-10-02 18:16:00,
2013-10-02 14:21:00,75.6,64.8,30.08,West,278,0.0,2.0,69,0.00,,,0.00,meteohub,2013-10-02 18:21:00,
2013-10-02 14:26:00,75.4,65.3,30.08,ESE,109,0.0,2.0,71,0.00,,,0.00,meteohub,2013-10-02 18:26:00,
2013-10-02 14:31:00,75.6,65.1,30.08,ESE,109,0.0,2.0,70,0.00,,,0.00,meteohub,2013-10-02 18:31:00,
2013-10-02 14:36:00,76.3,65.8,30.07,NE,56,0.0,2.0,70,0.00,,,0.00,meteohub,2013-10-02 18:36:00,
2013-10-02 14:41:00,76.8,65.5,30.08,WNW,285,1.0,2.0,68,0.00,,,0.00,meteohub,2013-10-02 18:41:00,
2013-10-02 14:47:00,77.5,64.4,30.08,West,277,1.0,4.0,64,0.00,,,0.00,meteohub,2013-10-02 18:47:00,
2013-10-02 14:52:00,77.4,64.8,30.08,West,281,2.0,6.0,65,0.00,,,0.00,meteohub,2013-10-02 18:52:00,
2013-10-02 14:57:00,76.8,64.2,30.07,WNW,294,1.0,6.0,65,0.00,,,0.00,meteohub,2013-10-02 18:57:00,
2013-10-02 15:02:00,77.4,64.8,30.07,WNW,289,1.0,5.0,65,0.00,,,0.00,meteohub,2013-10-02 19:02:00,
2013-10-02 15:07:00,77.7,65.5,30.07,WSW,256,2.0,4.0,66,0.00,,,0.00,meteohub,2013-10-02 19:07:00,
2013-10-02 15:12:00,77.4,63.9,30.07,SW,228,1.0,3.0,63,0.00,,,0.00,meteohub,2013-10-02 19:12:00,
2013-10-02 15:17:00,77.2,63.1,30.07,WNW,297,0.0,6.0,62,0.00,,,0.00,meteohub,2013-10-02 19:17:00,
2013-10-02 15:22:00,77.4,65.1,30.06,West,263,2.0,6.0,66,0.00,,,0.00,meteohub,2013-10-02 19:22:00,
2013-10-02 15:27:00,77.5,64.4,30.06,NW,305,0.0,6.0,64,0.00,,,0.00,meteohub,2013-10-02 19:27:00,
2013-10-02 15:32:00,77.5,63.9,30.06,NE,56,0.0,2.0,63,0.00,,,0.00,meteohub,2013-10-02 19:32:00,
2013-10-02 15:37:00,77.5,64.4,30.06,West,280,0.0,2.0,64,0.00,,,0.00,meteohub,2013-10-02 19:37:00,
2013-10-02 15:42:00,77.2,63.7,30.06,SSW,207,1.0,2.0,63,0.00,,,0.00,meteohub,2013-10-02 19:42:00,
2013-10-02 15:47:00,77.4,64.8,30.06,SSW,207,0.0,2.0,65,0.00,,,0.00,meteohub,2013-10-02 19:47:00,
2013-10-02 15:52:00,78.1,64.0,30.06,West,264,0.0,2.0,62,0.00,,,0.00,meteohub,2013-10-02 19:52:00,
2013-10-02 15:58:00,78.4,64.8,30.06,NNE,16,0.0,1.0,63,0.00,,,0.00,meteohub,2013-10-02 19:58:00,
2013-10-02 16:03:00,78.4,63.9,30.06,SE,131,3.0,3.0,61,0.00,,,0.00,meteohub,2013-10-02 20:03:00,
2013-10-02 16:08:00,78.6,64.6,30.06,SSW,200,0.0,5.0,62,0.00,,,0.00,meteohub,2013-10-02 20:08:00,
2013-10-02 16:13:00,78.4,63.0,30.06,West,259,0.0,5.0,59,0.00,,,0.00,meteohub,2013-10-02 20:13:00,
2013-10-02 16:18:00,78.1,63.5,30.06,West,261,4.0,5.0,61,0.00,,,0.00,meteohub,2013-10-02 20:18:00,
2013-10-02 16:23:00,77.5,63.0,30.06,WNW,283,1.0,5.0,61,0.00,,,0.00,meteohub,2013-10-02 20:23:00,
2013-10-02 16:28:00,77.5,63.9,30.06,West,264,0.0,5.0,63,0.00,,,0.00,meteohub,2013-10-02 20:28:00,
2013-10-02 16:33:00,77.5,64.4,30.05,West,267,1.0,5.0,64,0.00,,,0.00,meteohub,2013-10-02 20:33:00,
2013-10-02 16:38:00,77.7,63.1,30.05,SE,129,0.0,3.0,61,0.00,,,0.00,meteohub,2013-10-02 20:38:00,
2013-10-02 16:43:00,77.5,65.3,30.05,SSE,152,0.0,3.0,66,0.00,,,0.00,meteohub,2013-10-02 20:43:00,
2013-10-02 16:48:00,77.2,64.6,30.05,SSE,153,0.0,3.0,65,0.00,,,0.00,meteohub,2013-10-02 20:48:00,
2013-10-02 16:53:00,76.3,64.9,30.05,SSE,152,0.0,3.0,68,0.00,,,0.00,meteohub,2013-10-02 20:53:00,
2013-10-02 16:58:00,75.7,64.4,30.05,SSE,152,0.0,1.0,68,0.00,,,0.00,meteohub,2013-10-02 20:58:00,
2013-10-02 17:03:00,75.6,65.1,30.05,SSE,151,0.0,0.0,70,0.00,,,0.00,meteohub,2013-10-02 21:03:00,
2013-10-02 17:09:00,75.6,65.1,30.05,SSE,149,0.0,0.0,70,0.00,,,0.00,meteohub,2013-10-02 21:09:00,
2013-10-02 17:14:00,75.6,65.5,30.05,SSE,149,0.0,0.0,71,0.00,,,0.00,meteohub,2013-10-02 21:14:00,
2013-10-02 17:19:00,75.6,66.4,30.05,SSE,149,0.0,1.0,73,0.00,,,0.00,meteohub,2013-10-02 21:19:00,
2013-10-02 17:24:00,75.7,65.3,30.05,SSE,149,0.0,1.0,70,0.00,,,0.00,meteohub,2013-10-02 21:24:00,
2013-10-02 17:29:00,75.9,64.6,30.05,SSE,153,0.0,1.0,68,0.00,,,0.00,meteohub,2013-10-02 21:29:00,
2013-10-02 17:34:00,75.7,65.3,30.05,SSE,152,0.0,0.0,70,0.00,,,0.00,meteohub,2013-10-02 21:34:00,
2013-10-02 17:39:00,75.0,65.3,30.05,SSE,150,0.0,0.0,72,0.00,,,0.00,meteohub,2013-10-02 21:39:00,
2013-10-02 17:44:00,74.1,64.9,30.05,SSE,150,0.0,0.0,73,0.00,,,0.00,meteohub,2013-10-02 21:44:00,
2013-10-02 17:49:00,73.6,64.8,30.05,SSE,150,0.0,0.0,74,0.00,,,0.00,meteohub,2013-10-02 21:49:00,
2013-10-02 17:54:00,73.4,64.6,30.05,SSE,151,0.0,0.0,74,0.00,,,0.00,meteohub,2013-10-02 21:54:00,
2013-10-02 17:59:00,73.2,64.8,30.05,SSE,150,0.0,0.0,75,0.00,,,0.00,meteohub,2013-10-02 21:59:00,
2013-10-02 18:04:00,73.2,64.8,30.05,SSE,151,0.0,0.0,75,0.00,,,0.00,meteohub,2013-10-02 22:04:00,
2013-10-02 18:09:00,73.2,64.8,30.05,SSE,151,0.0,0.0,75,0.00,,,0.00,meteohub,2013-10-02 22:09:00,
2013-10-02 18:14:00,73.2,65.1,30.05,SSE,151,0.0,0.0,76,0.00,,,0.00,meteohub,2013-10-02 22:14:00,
2013-10-02 18:19:00,73.0,65.5,30.05,SSE,150,0.0,0.0,77,0.00,,,0.00,meteohub,2013-10-02 22:19:00,
2013-10-02 18:25:00,72.7,65.5,30.05,SSE,151,0.0,0.0,78,0.00,,,0.00,meteohub,2013-10-02 22:25:00,
2013-10-02 18:30:00,72.1,66.0,30.05,SSE,151,0.0,0.0,81,0.00,,,0.00,meteohub,2013-10-02 22:30:00,
2013-10-02 18:35:00,71.4,66.0,30.05,SSE,151,0.0,0.0,83,0.00,,,0.00,meteohub,2013-10-02 22:35:00,
2013-10-02 18:40:00,70.9,66.2,30.06,SSE,150,0.0,0.0,85,0.00,,,0.00,meteohub,2013-10-02 22:40:00,
2013-10-02 18:45:00,70.3,66.0,30.06,SSE,150,0.0,0.0,86,0.00,,,0.00,meteohub,2013-10-02 22:45:00,
2013-10-02 18:50:00,69.6,65.3,30.06,SSE,150,0.0,0.0,86,0.00,,,0.00,meteohub,2013-10-02 22:50:00,
2013-10-02 18:55:00,69.1,65.1,30.06,SSE,150,0.0,0.0,87,0.00,,,0.00,meteohub,2013-10-02 22:55:00,
2013-10-02 19:00:00,68.5,64.6,30.06,SSE,150,0.0,0.0,87,0.00,,,0.00,meteohub,2013-10-02 23:00:00,
2013-10-02 19:05:00,68.0,64.4,30.06,SSE,150,0.0,0.0,88,0.00,,,0.00,meteohub,2013-10-02 23:05:00,
2013-10-02 19:10:00,67.5,64.0,30.06,SSE,151,0.0,0.0,89,0.00,,,0.00,meteohub,2013-10-02 23:10:00,
2013-10-02 19:15:00,67.1,63.7,30.06,SSE,150,0.0,0.0,89,0.00,,,0.00,meteohub,2013-10-02 23:15:00,
2013-10-02 19:21:00,66.6,63.1,30.06,SSE,150,0.0,0.0,89,0.00,,,0.00,meteohub,2013-10-02 23:21:00,
2013-10-02 19:26:00,66.2,63.1,30.06,SSE,150,0.0,0.0,90,0.00,,,0.00,meteohub,2013-10-02 23:26:00,
2013-10-02 19:31:00,65.8,62.8,30.06,SSE,150,0.0,0.0,90,0.00,,,0.00,meteohub,2013-10-02 23:31:00,
2013-10-02 19:36:00,65.7,63.0,30.06,SSE,150,0.0,0.0,91,0.00,,,0.00,meteohub,2013-10-02 23:36:00,
2013-10-02 19:41:00,65.3,62.6,30.06,SSE,150,0.0,0.0,91,0.00,,,0.00,meteohub,2013-10-02 23:41:00,
2013-10-02 19:46:00,64.9,62.2,30.06,SSE,151,0.0,0.0,91,0.00,,,0.00,meteohub,2013-10-02 23:46:00,
2013-10-02 19:51:00,64.8,62.1,30.06,SSE,150,0.0,0.0,91,0.00,,,0.00,meteohub,2013-10-02 23:51:00,
2013-10-02 19:56:00,64.6,62.2,30.06,SSE,151,0.0,0.0,92,0.00,,,0.00,meteohub,2013-10-02 23:56:00,
2013-10-02 20:01:00,64.2,61.9,30.06,SSE,150,0.0,0.0,92,0.00,,,0.00,meteohub,2013-10-03 00:01:00,
2013-10-02 20:02:00,64.2,61.9,30.06,SSE,150,0.0,0.0,92,0.00,,,0.00,meteohub,2013-10-03 00:02:00,
2013-10-02 20:07:00,64.0,61.7,30.07,SSE,150,0.0,0.0,92,0.00,,,0.00,meteohub,2013-10-03 00:07:00,
2013-10-02 20:12:00,63.9,61.5,30.07,SSE,150,0.0,0.0,92,0.00,,,0.00,meteohub,2013-10-03 00:12:00,
2013-10-02 20:17:00,63.7,61.3,30.07,SSE,150,0.0,0.0,92,0.00,,,0.00,meteohub,2013-10-03 00:17:00,
2013-10-02 20:22:00,63.7,61.7,30.07,SSE,151,0.0,0.0,93,0.00,,,0.00,meteohub,2013-10-03 00:22:00,
2013-10-02 20:27:00,63.3,61.3,30.07,SSE,150,0.0,0.0,93,0.00,,,0.00,meteohub,2013-10-03 00:27:00,
2013-10-02 20:32:00,63.1,61.2,30.07,SSE,151,0.0,0.0,93,0.00,,,0.00,meteohub,2013-10-03 00:32:00,
2013-10-02 20:37:00,63.0,61.0,30.07,SSE,150,0.0,0.0,93,0.00,,,0.00,meteohub,2013-10-03 00:37:00,
2013-10-02 20:42:00,63.0,61.0,30.07,SSE,150,0.0,0.0,93,0.00,,,0.00,meteohub,2013-10-03 00:42:00,
2013-10-02 20:47:00,62.8,61.0,30.07,SSE,150,0.0,0.0,94,0.00,,,0.00,meteohub,2013-10-03 00:47:00,
2013-10-02 20:52:00,62.6,60.8,30.08,SSE,150,0.0,0.0,94,0.00,,,0.00,meteohub,2013-10-03 00:52:00,
2013-10-02 20:57:00,62.4,60.6,30.08,SSE,150,0.0,0.0,94,0.00,,,0.00,meteohub,2013-10-03 00:57:00,
2013-10-02 21:02:00,62.4,60.6,30.08,SSE,150,0.0,0.0,94,0.00,,,0.00,meteohub,2013-10-03 01:02:00,
2013-10-02 21:08:00,62.2,60.4,30.08,SSE,150,0.0,0.0,94,0.00,,,0.00,meteohub,2013-10-03 01:08:00,
2013-10-02 21:13:00,62.1,60.3,30.08,SSE,150,0.0,0.0,94,0.00,,,0.00,meteohub,2013-10-03 01:13:00,
2013-10-02 21:18:00,62.1,60.3,30.08,SSE,150,0.0,0.0,94,0.00,,,0.00,meteohub,2013-10-03 01:18:00,
2013-10-02 21:23:00,61.9,60.4,30.08,SSE,150,0.0,0.0,95,0.00,,,0.00,meteohub,2013-10-03 01:23:00,
2013-10-02 21:28:00,61.9,60.4,30.08,SSE,150,0.0,0.0,95,0.00,,,0.00,meteohub,2013-10-03 01:28:00,
2013-10-02 21:33:00,61.5,60.1,30.08,SSE,150,0.0,0.0,95,0.00,,,0.00,meteohub,2013-10-03 01:33:00,
2013-10-02 21:38:00,61.3,59.9,30.08,SSE,150,0.0,0.0,95,0.00,,,0.00,meteohub,2013-10-03 01:38:00,
2013-10-02 21:43:00,61.3,59.9,30.08,SSE,150,0.0,0.0,95,0.00,,,0.00,meteohub,2013-10-03 01:43:00,
2013-10-02 21:48:00,61.2,59.7,30.08,SSE,150,0.0,0.0,95,0.00,,,0.00,meteohub,2013-10-03 01:48:00,
2013-10-02 21:53:00,61.2,59.7,30.08,SSE,150,0.0,0.0,95,0.00,,,0.00,meteohub,2013-10-03 01:53:00,
2013-10-02 21:58:00,61.0,59.5,30.08,SSE,150,0.0,0.0,95,0.00,,,0.00,meteohub,2013-10-03 01:58:00,
2013-10-02 22:03:00,61.0,59.5,30.08,SSE,150,0.0,0.0,95,0.00,,,0.00,meteohub,2013-10-03 02:03:00,
2013-10-02 22:05:00,61.0,59.5,30.08,SSE,150,0.0,0.0,95,0.00,,,0.00,meteohub,2013-10-03 02:05:00,
2013-10-02 22:10:00,60.6,59.2,30.09,SSE,150,0.0,0.0,95,0.00,,,0.00,meteohub,2013-10-03 02:10:00,
2013-10-02 22:15:00,60.6,59.5,30.09,SSE,150,0.0,0.0,96,0.00,,,0.00,meteohub,2013-10-03 02:15:00,
2013-10-02 22:20:00,60.4,59.4,30.09,SSE,150,0.0,0.0,96,0.00,,,0.00,meteohub,2013-10-03 02:20:00,
2013-10-02 22:25:00,60.4,59.4,30.09,SSE,150,0.0,0.0,96,0.00,,,0.00,meteohub,2013-10-03 02:25:00,
2013-10-02 22:30:00,60.3,59.2,30.09,SSE,150,0.0,0.0,96,0.00,,,0.00,meteohub,2013-10-03 02:30:00,
2013-10-02 22:35:00,60.3,59.2,30.09,SSE,150,0.0,0.0,96,0.00,,,0.00,meteohub,2013-10-03 02:35:00,
2013-10-02 22:40:00,60.3,59.2,30.09,SSE,150,0.0,0.0,96,0.00,,,0.00,meteohub,2013-10-03 02:40:00,
2013-10-02 22:45:00,60.1,59.0,30.09,SSE,150,0.0,0.0,96,0.00,,,0.00,meteohub,2013-10-03 02:45:00,
2013-10-02 22:50:00,59.9,58.8,30.09,SSE,150,0.0,0.0,96,0.00,,,0.00,meteohub,2013-10-03 02:50:00,
2013-10-02 22:56:00,59.9,58.8,30.09,SSE,150,0.0,0.0,96,0.00,,,0.00,meteohub,2013-10-03 02:56:00,
2013-10-02 23:01:00,59.9,58.8,30.09,SSE,150,0.0,0.0,96,0.00,,,0.00,meteohub,2013-10-03 03:01:00,
2013-10-02 23:06:00,59.7,58.6,30.09,SSE,150,0.0,0.0,96,0.00,,,0.00,meteohub,2013-10-03 03:06:00,
2013-10-02 23:11:00,59.5,58.5,30.09,SSE,150,0.0,0.0,96,0.00,,,0.00,meteohub,2013-10-03 03:11:00,
2013-10-02 23:16:00,59.5,58.5,30.09,SSE,150,0.0,0.0,96,0.00,,,0.00,meteohub,2013-10-03 03:16:00,
2013-10-02 23:21:00,59.7,58.8,30.09,SSE,150,0.0,0.0,97,0.00,,,0.00,meteohub,2013-10-03 03:21:00,
2013-10-02 23:26:00,59.5,58.6,30.09,SSE,150,0.0,0.0,97,0.00,,,0.00,meteohub,2013-10-03 03:26:00,
2013-10-02 23:31:00,59.4,58.3,30.09,SSE,150,0.0,0.0,96,0.00,,,0.00,meteohub,2013-10-03 03:31:00,
2013-10-02 23:36:00,59.4,58.5,30.09,SSE,150,0.0,0.0,97,0.00,,,0.00,meteohub,2013-10-03 03:36:00,
2013-10-02 23:41:00,59.2,58.1,30.09,SSE,150,0.0,0.0,96,0.00,,,0.00,meteohub,2013-10-03 03:41:00,
2013-10-02 23:46:00,59.4,58.5,30.10,SSE,150,0.0,0.0,97,0.00,,,0.00,meteohub,2013-10-03 03:46:00,
2013-10-02 23:51:00,59.5,58.6,30.09,SSE,150,0.0,0.0,97,0.00,,,0.00,meteohub,2013-10-03 03:51:00,
2013-10-02 23:56:00,59.7,58.8,30.09,SSE,150,0.0,0.0,97,0.00,,,0.00,meteohub,2013-10-03 03:56:00,